createdAt,value
2023-03-27T00:01:27.949Z,17.70
2023-03-27T00:03:55.836Z,17.13
2023-03-27T00:06:25.407Z,18.57
2023-03-27T00:08:52.341Z,16.40
2023-03-27T00:11:20.360Z,17.00
2023-03-27T00:13:51.330Z,16.33
2023-03-27T00:16:23.113Z,20.30
2023-03-27T00:18:50.010Z,17.07
2023-03-27T00:21:17.346Z,13.53
2023-03-27T00:23:44.219Z,14.67
2023-03-27T00:26:12.276Z,12.87
2023-03-27T00:28:39.430Z,15.07
2023-03-27T00:31:09.835Z,16.00
2023-03-27T00:33:36.824Z,12.30
2023-03-27T00:36:03.747Z,15.83
2023-03-27T00:38:31.612Z,12.17
2023-03-27T00:40:58.816Z,12.73
2023-03-27T00:43:34.128Z,11.80
2023-03-27T00:46:21.465Z,12.20
2023-03-27T00:48:50.308Z,14.20
2023-03-27T00:51:17.632Z,10.43
2023-03-27T00:53:44.825Z,11.17
2023-03-27T00:56:11.710Z,11.60
2023-03-27T00:58:44.989Z,9.77
2023-03-27T01:01:13.756Z,8.57
2023-03-27T01:03:42.439Z,12.97
2023-03-27T01:06:11.197Z,12.17
2023-03-27T01:08:38.683Z,14.67
2023-03-27T01:11:15.088Z,14.37
2023-03-27T01:14:00.759Z,17.03
2023-03-27T01:16:34.825Z,14.90
2023-03-27T01:19:10.890Z,15.50
2023-03-27T01:21:37.787Z,13.47
2023-03-27T01:24:11.636Z,16.17
2023-03-27T01:26:58.506Z,16.50
2023-03-27T01:29:26.206Z,15.00
2023-03-27T01:32:06.398Z,16.23
2023-03-27T01:34:33.327Z,14.33
2023-03-27T01:37:00.963Z,13.93
2023-03-27T01:39:32.323Z,13.37
2023-03-27T01:42:06.132Z,13.77
2023-03-27T01:44:43.872Z,14.47
2023-03-27T01:47:21.740Z,15.30
2023-03-27T01:49:52.360Z,13.60
2023-03-27T01:52:21.241Z,14.40
2023-03-27T01:54:55.909Z,12.93
2023-03-27T01:57:25.529Z,18.57
2023-03-27T02:00:18.759Z,14.10
2023-03-27T02:02:48.964Z,12.53
2023-03-27T02:05:19.771Z,11.33
2023-03-27T02:07:59.276Z,13.33
2023-03-27T02:10:29.189Z,12.87
2023-03-27T02:12:58.809Z,13.53
2023-03-27T02:15:32.976Z,15.00
2023-03-27T02:18:10.275Z,13.63
2023-03-27T02:20:38.337Z,13.33
2023-03-27T02:23:06.575Z,12.50
2023-03-27T02:25:35.343Z,12.80
2023-03-27T02:28:17.469Z,15.70
2023-03-27T02:30:47.650Z,14.83
2023-03-27T02:33:43.506Z,18.07
2023-03-27T02:36:29.294Z,15.80
2023-03-27T02:38:56.321Z,15.20
2023-03-27T02:41:26.702Z,14.53
2023-03-27T02:44:11.554Z,18.33
2023-03-27T02:46:58.609Z,16.87
2023-03-27T02:49:35.296Z,13.70
2023-03-27T02:52:22.476Z,16.10
2023-03-27T02:54:52.665Z,15.43
2023-03-27T02:57:24.958Z,14.77
2023-03-27T03:00:26.794Z,18.87
2023-03-27T03:03:05.817Z,15.63
2023-03-27T03:05:34.315Z,15.20
2023-03-27T03:08:01.220Z,16.63
2023-03-27T03:10:28.187Z,16.00
2023-03-27T03:12:55.089Z,13.60
2023-03-27T03:15:21.990Z,13.07
2023-03-27T03:17:48.890Z,11.67
2023-03-27T03:20:17.092Z,13.57
2023-03-27T03:22:44.064Z,13.03
2023-03-27T03:25:16.285Z,14.17
2023-03-27T03:27:44.356Z,13.00
2023-03-27T03:30:16.822Z,12.13
2023-03-27T03:33:18.176Z,10.43
2023-03-27T03:35:49.445Z,10.93
2023-03-27T03:38:26.731Z,10.47
2023-03-27T03:40:56.953Z,10.60
2023-03-27T03:43:24.889Z,10.90
2023-03-27T03:45:51.891Z,7.83
2023-03-27T03:48:19.606Z,10.13
2023-03-27T03:50:46.896Z,10.00
2023-03-27T03:53:14.702Z,9.67
2023-03-27T03:55:41.908Z,9.00
2023-03-27T03:58:09.482Z,6.27
2023-03-27T04:00:40.811Z,9.87
2023-03-27T04:03:19.312Z,9.53
2023-03-27T04:05:46.309Z,6.77
2023-03-27T04:08:13.338Z,8.17
2023-03-27T04:10:41.741Z,9.17
2023-03-27T04:13:18.611Z,7.70
2023-03-27T04:15:55.552Z,8.20
2023-03-27T04:18:35.664Z,9.30
2023-03-27T04:21:14.978Z,6.90
2023-03-27T04:23:42.639Z,5.97
2023-03-27T04:26:12.463Z,7.63
2023-03-27T04:28:58.059Z,7.23
2023-03-27T04:31:46.759Z,7.63
2023-03-27T04:34:33.794Z,6.50
2023-03-27T04:37:24.134Z,4.63
2023-03-27T04:40:15.230Z,7.50
2023-03-27T04:42:44.162Z,7.27
2023-03-27T04:45:17.468Z,5.97
2023-03-27T04:47:49.247Z,5.13
2023-03-27T04:50:20.170Z,7.03
2023-03-27T04:52:50.187Z,4.67
2023-03-27T04:55:19.571Z,7.30
2023-03-27T04:57:49.314Z,5.87
2023-03-27T05:00:19.219Z,9.27
2023-03-27T05:02:47.914Z,9.53
2023-03-27T05:05:28.553Z,7.70
2023-03-27T05:07:56.348Z,7.20
2023-03-27T05:10:25.006Z,9.60
2023-03-27T05:12:52.995Z,8.93
2023-03-27T05:15:21.325Z,9.87
2023-03-27T05:17:54.637Z,8.63
2023-03-27T05:20:25.052Z,9.53
2023-03-27T05:22:56.513Z,9.10
2023-03-27T05:25:28.324Z,8.93
2023-03-27T05:27:56.368Z,11.87
2023-03-27T05:30:27.159Z,12.03
2023-03-27T05:33:14.167Z,11.17
2023-03-27T05:35:47.402Z,14.23
2023-03-27T05:38:15.654Z,11.93
2023-03-27T05:41:18.315Z,15.50
2023-03-27T05:43:50.156Z,19.17
2023-03-27T05:46:20.884Z,16.73
2023-03-27T05:49:04.718Z,18.50
2023-03-27T05:51:31.943Z,17.80
2023-03-27T05:53:59.220Z,21.77
2023-03-27T05:56:35.325Z,18.83
2023-03-27T05:59:04.124Z,24.53
2023-03-27T06:01:36.201Z,25.43
2023-03-27T06:04:04.561Z,28.70
2023-03-27T06:06:51.664Z,26.73
2023-03-27T06:09:18.826Z,31.37
2023-03-27T06:12:03.865Z,30.00
2023-03-27T06:14:33.391Z,27.17
2023-03-27T06:17:17.439Z,29.10
2023-03-27T06:19:50.959Z,29.53
2023-03-27T06:22:17.934Z,29.20
2023-03-27T06:24:47.593Z,32.97
2023-03-27T06:27:20.385Z,32.40
2023-03-27T06:29:47.773Z,30.80
2023-03-27T06:32:14.686Z,29.10
2023-03-27T06:34:50.279Z,32.30
2023-03-27T06:37:37.492Z,27.40
2023-03-27T06:40:09.655Z,25.47
2023-03-27T06:42:38.690Z,22.80
2023-03-27T06:45:45.422Z,24.27
2023-03-27T06:48:21.242Z,24.77
2023-03-27T06:50:51.456Z,22.80
2023-03-27T06:53:27.271Z,20.57
2023-03-27T06:55:56.080Z,17.70
2023-03-27T06:58:24.592Z,22.37
2023-03-27T07:00:51.889Z,17.37
2023-03-27T07:03:19.654Z,22.60
2023-03-27T07:05:49.891Z,18.60
2023-03-27T07:08:24.260Z,18.57
2023-03-27T07:13:24.763Z,14.53
2023-03-27T07:15:51.942Z,18.10
2023-03-27T07:18:22.212Z,13.80
2023-03-27T07:20:51.026Z,16.23
2023-03-27T07:23:22.149Z,15.70
2023-03-27T07:25:57.957Z,14.80
2023-03-27T07:28:45.163Z,13.07
2023-03-27T07:31:31.519Z,15.63
2023-03-27T07:34:01.161Z,12.17
2023-03-27T07:36:48.011Z,12.90
2023-03-27T07:39:15.008Z,11.93
2023-03-27T07:41:41.909Z,10.87
2023-03-27T07:44:21.242Z,14.43
2023-03-27T07:47:04.601Z,14.60
2023-03-27T07:49:39.894Z,16.70
2023-03-27T07:52:10.191Z,18.73
2023-03-27T07:54:49.210Z,20.67
2023-03-27T07:57:18.641Z,29.17
2023-03-27T08:00:11.819Z,24.83
2023-03-27T08:02:50.830Z,20.37
2023-03-27T08:05:18.614Z,30.47
2023-03-27T08:07:54.851Z,20.43
2023-03-27T08:10:40.381Z,21.73
2023-03-27T08:13:08.632Z,14.57
2023-03-27T08:15:35.927Z,17.67
2023-03-27T08:18:07.037Z,12.40
2023-03-27T08:20:34.997Z,13.27
2023-03-27T08:23:01.860Z,13.53
2023-03-27T08:25:34.910Z,14.17
2023-03-27T08:28:06.483Z,14.97
2023-03-27T08:30:33.699Z,11.17
2023-03-27T08:33:02.528Z,9.53
2023-03-27T08:35:29.972Z,9.73
2023-03-27T08:37:57.470Z,92.13
2023-03-27T08:40:26.457Z,8.87
2023-03-27T08:43:14.019Z,36.80
2023-03-27T08:45:44.633Z,16.10
2023-03-27T08:48:16.857Z,19.33
2023-03-27T08:50:57.179Z,20.43
2023-03-27T08:53:35.192Z,7.67
2023-03-27T08:56:04.267Z,46.83
2023-03-27T08:58:40.654Z,9.73
2023-03-27T09:01:15.764Z,9.93
2023-03-27T09:03:43.207Z,7.50
2023-03-27T09:06:24.931Z,8.90
2023-03-27T09:09:03.885Z,9.23
2023-03-27T09:11:40.242Z,11.00
2023-03-27T09:14:12.169Z,9.57
2023-03-27T09:16:49.966Z,9.03
2023-03-27T09:19:36.161Z,11.57
2023-03-27T09:22:11.318Z,9.70
2023-03-27T09:25:08.563Z,11.80
2023-03-27T09:27:55.913Z,9.13
2023-03-27T09:30:41.186Z,12.53
2023-03-27T09:33:27.232Z,8.83
2023-03-27T09:35:55.422Z,10.43
2023-03-27T09:38:22.615Z,11.43
2023-03-27T09:40:49.694Z,8.53
2023-03-27T09:43:37.718Z,9.07
2023-03-27T09:46:04.876Z,8.27
2023-03-27T09:48:35.022Z,12.90
2023-03-27T09:51:27.892Z,9.67
2023-03-27T09:53:58.908Z,9.17
2023-03-27T09:56:31.087Z,8.87
2023-03-27T09:58:59.239Z,8.80
2023-03-27T10:01:34.644Z,9.80
2023-03-27T10:04:17.406Z,6.17
2023-03-27T10:06:56.780Z,8.20
2023-03-27T10:09:39.408Z,6.83
2023-03-27T10:12:08.544Z,6.67
2023-03-27T10:14:41.081Z,9.17
2023-03-27T10:17:36.163Z,6.57
2023-03-27T10:20:15.963Z,6.20
2023-03-27T10:22:52.576Z,5.73
2023-03-27T10:25:29.849Z,5.97
2023-03-27T10:28:36.694Z,6.80
2023-03-27T10:31:30.968Z,5.60
2023-03-27T10:34:05.111Z,7.60
2023-03-27T10:36:54.584Z,7.43
2023-03-27T10:39:26.789Z,8.77
2023-03-27T10:42:17.662Z,7.87
2023-03-27T10:44:49.793Z,4.80
2023-03-27T10:47:18.913Z,6.07
2023-03-27T10:50:02.441Z,5.70
2023-03-27T10:52:46.011Z,5.10
2023-03-27T10:55:35.155Z,6.70
2023-03-27T10:58:14.799Z,6.27
2023-03-27T11:00:46.888Z,5.83
2023-03-27T11:03:22.911Z,9.57
2023-03-27T11:05:57.460Z,7.70
2023-03-27T11:08:35.814Z,5.83
2023-03-27T11:11:07.696Z,8.97
2023-03-27T11:13:47.623Z,7.53
2023-03-27T11:16:21.042Z,7.47
2023-03-27T11:19:12.422Z,7.33
2023-03-27T11:22:19.911Z,6.40
2023-03-27T11:25:02.995Z,5.73
2023-03-27T11:27:53.195Z,5.93
2023-03-27T11:30:44.826Z,5.23
2023-03-27T11:33:29.431Z,6.97
2023-03-27T11:36:11.919Z,6.93
2023-03-27T11:38:51.674Z,5.40
2023-03-27T11:41:18.743Z,4.33
2023-03-27T11:43:46.467Z,4.53
2023-03-27T11:47:00.868Z,9.30
2023-03-27T11:49:47.980Z,5.97
2023-03-27T11:52:36.620Z,6.33
2023-03-27T11:55:06.929Z,4.23
2023-03-27T11:58:02.883Z,4.20
2023-03-27T12:01:01.588Z,4.90
2023-03-27T12:03:52.935Z,4.40
2023-03-27T12:06:30.643Z,5.53
2023-03-27T12:09:07.239Z,7.43
2023-03-27T12:11:57.294Z,5.70
2023-03-27T12:14:41.130Z,8.53
2023-03-27T12:17:20.623Z,6.87
2023-03-27T12:20:01.006Z,8.80
2023-03-27T12:22:43.895Z,5.77
2023-03-27T12:25:28.338Z,6.77
2023-03-27T12:28:07.116Z,7.73
2023-03-27T12:31:19.584Z,5.70
2023-03-27T12:34:00.941Z,5.07
2023-03-27T12:36:31.179Z,4.97
2023-03-27T12:38:59.200Z,4.27
2023-03-27T12:41:37.908Z,4.77
2023-03-27T12:44:13.934Z,4.20
2023-03-27T12:47:09.054Z,4.47
2023-03-27T12:49:48.333Z,4.70
2023-03-27T12:52:27.063Z,5.73
2023-03-27T12:55:19.063Z,5.97
2023-03-27T12:57:59.341Z,4.97
2023-03-27T13:01:00.920Z,4.07
2023-03-27T13:04:02.929Z,3.20
2023-03-27T13:06:43.478Z,4.17
2023-03-27T13:09:33.511Z,6.10
2023-03-27T13:12:23.272Z,5.10
2023-03-27T13:15:08.896Z,3.53
2023-03-27T13:17:37.475Z,11.33
2023-03-27T13:20:12.861Z,5.63
2023-03-27T13:22:52.763Z,6.33
2023-03-27T13:25:42.413Z,4.13
2023-03-27T13:28:12.669Z,7.27
2023-03-27T13:30:54.862Z,4.03
2023-03-27T13:34:27.751Z,4.57
2023-03-27T13:37:11.660Z,4.30
2023-03-27T13:39:59.885Z,4.33
2023-03-27T13:42:37.468Z,4.63
2023-03-27T13:45:13.971Z,6.47
2023-03-27T13:47:54.838Z,3.47
2023-03-27T13:50:34.147Z,3.60
2023-03-27T13:53:22.348Z,6.40
2023-03-27T13:56:23.395Z,26.50
2023-03-27T13:59:27.987Z,3.40
2023-03-27T14:02:14.993Z,20.90
2023-03-27T14:04:57.727Z,4.13
2023-03-27T14:07:32.667Z,9.33
2023-03-27T14:10:11.946Z,2.80
2023-03-27T14:13:06.961Z,3.73
2023-03-27T14:15:46.994Z,5.93
2023-03-27T14:18:29.631Z,4.70
2023-03-27T14:21:00.800Z,3.80
2023-03-27T14:23:37.552Z,3.10
2023-03-27T14:26:20.519Z,4.70
2023-03-27T14:28:59.217Z,2.83
2023-03-27T14:31:38.547Z,3.30
2023-03-27T14:34:17.282Z,4.07
2023-03-27T14:36:47.752Z,3.73
2023-03-27T14:39:22.557Z,5.03
2023-03-27T14:41:57.303Z,3.93
2023-03-27T14:44:26.345Z,5.90
2023-03-27T14:47:04.067Z,3.87
2023-03-27T14:49:38.960Z,3.77
2023-03-27T14:52:09.817Z,5.10
2023-03-27T14:54:57.978Z,4.80
2023-03-27T14:57:30.847Z,3.73
2023-03-27T15:00:01.492Z,4.43
2023-03-27T15:02:32.038Z,4.10
2023-03-27T15:05:04.182Z,3.50
2023-03-27T15:07:35.808Z,5.90
2023-03-27T15:10:22.764Z,3.90
2023-03-27T15:13:09.377Z,4.20
2023-03-27T15:15:40.019Z,6.20
2023-03-27T15:18:12.374Z,3.80
2023-03-27T15:20:40.001Z,5.70
2023-03-27T15:23:10.159Z,3.90
2023-03-27T15:25:46.104Z,4.30
2023-03-27T15:28:22.336Z,4.87
2023-03-27T15:30:51.618Z,4.63
2023-03-27T15:33:22.192Z,6.60
2023-03-27T15:35:51.963Z,8.07
2023-03-27T15:38:29.552Z,6.27
2023-03-27T15:41:01.276Z,5.93
2023-03-27T15:43:29.118Z,4.43
2023-03-27T15:46:01.084Z,4.97
2023-03-27T15:48:32.705Z,7.43
2023-03-27T15:50:59.659Z,5.70
2023-03-27T15:53:35.764Z,5.37
2023-03-27T15:56:05.477Z,4.57
2023-03-27T15:58:51.146Z,6.37
2023-03-27T16:01:22.702Z,5.53
2023-03-27T16:03:51.563Z,5.77
2023-03-27T16:06:30.995Z,4.70
2023-03-27T16:08:58.131Z,5.90
2023-03-27T16:11:35.166Z,3.80
2023-03-27T16:14:02.162Z,4.33
2023-03-27T16:16:34.084Z,4.70
2023-03-27T16:19:10.961Z,3.87
2023-03-27T16:21:37.979Z,4.13
2023-03-27T16:24:05.089Z,6.27
2023-03-27T16:26:32.286Z,4.37
2023-03-27T16:29:03.888Z,7.67
2023-03-27T16:31:30.775Z,4.23
2023-03-27T16:33:58.466Z,4.97
2023-03-27T16:36:33.130Z,6.30
2023-03-27T16:39:00.117Z,23.57
2023-03-27T16:41:27.450Z,4.20
2023-03-27T16:43:54.590Z,5.50
2023-03-27T16:46:22.591Z,5.93
2023-03-27T16:48:51.353Z,4.37
2023-03-27T16:51:18.797Z,4.67
2023-03-27T16:53:45.578Z,5.40
2023-03-27T16:56:12.659Z,3.83
2023-03-27T16:58:39.785Z,5.30
2023-03-27T17:01:07.871Z,5.93
2023-03-27T17:03:37.287Z,6.97
2023-03-27T17:06:05.932Z,4.73
2023-03-27T17:08:33.484Z,9.87
2023-03-27T17:11:05.133Z,4.80
2023-03-27T17:13:32.801Z,9.33
2023-03-27T17:16:00.251Z,6.80
2023-03-27T17:18:27.317Z,8.07
2023-03-27T17:20:54.208Z,9.57
2023-03-27T17:23:22.054Z,11.97
2023-03-27T17:25:49.407Z,7.93
2023-03-27T17:28:16.678Z,7.37
2023-03-27T17:30:56.778Z,6.30
2023-03-27T17:33:31.109Z,7.97
2023-03-27T17:35:59.054Z,5.70
2023-03-27T17:38:28.003Z,7.53
2023-03-27T17:40:55.577Z,9.43
2023-03-27T17:43:22.455Z,8.97
2023-03-27T17:45:50.231Z,6.43
2023-03-27T17:48:17.172Z,7.87
2023-03-27T17:50:54.754Z,10.47
2023-03-27T17:53:29.947Z,7.33
2023-03-27T17:55:58.324Z,37.30
2023-03-27T17:58:27.166Z,95.23
2023-03-27T18:00:54.318Z,76.37
2023-03-27T18:03:21.568Z,17.37
2023-03-27T18:05:49.069Z,22.43
2023-03-27T18:08:17.271Z,16.27
2023-03-27T18:10:45.191Z,60.83
2023-03-27T18:13:12.774Z,11.07
2023-03-27T18:15:40.978Z,79.00
2023-03-27T18:18:07.864Z,29.77
2023-03-27T18:20:35.008Z,146.10
2023-03-27T18:23:01.930Z,186.17
2023-03-27T18:25:28.703Z,139.30
2023-03-27T18:27:55.720Z,73.30
2023-03-27T18:30:24.077Z,42.47
2023-03-27T18:32:51.056Z,78.77
2023-03-27T18:35:18.830Z,14.03
2023-03-27T18:37:46.582Z,24.03
2023-03-27T18:40:15.300Z,38.67
2023-03-27T18:42:45.428Z,32.07
2023-03-27T18:45:13.168Z,26.50
2023-03-27T18:47:40.150Z,25.60
2023-03-27T18:50:07.452Z,15.77
2023-03-27T18:52:34.273Z,17.27
2023-03-27T18:55:01.230Z,20.47
2023-03-27T18:57:28.244Z,21.43
2023-03-27T18:59:58.707Z,35.87
2023-03-27T19:02:25.719Z,21.20
2023-03-27T19:04:53.674Z,16.33
2023-03-27T19:07:20.955Z,20.30
2023-03-27T19:09:47.751Z,19.67
2023-03-27T19:12:14.730Z,20.87
2023-03-27T19:15:09.826Z,22.07
2023-03-27T19:17:58.972Z,21.73
2023-03-27T19:20:44.376Z,25.70
2023-03-27T19:23:25.377Z,21.13
2023-03-27T19:25:52.239Z,16.93
2023-03-27T19:28:19.133Z,14.33
2023-03-27T19:30:47.562Z,15.23
2023-03-27T19:33:14.566Z,15.80
2023-03-27T19:35:41.537Z,12.50
2023-03-27T19:38:08.388Z,12.90
2023-03-27T19:40:35.464Z,13.33
2023-03-27T19:43:02.322Z,12.70
2023-03-27T19:45:29.257Z,13.93
2023-03-27T19:47:56.417Z,12.80
2023-03-27T19:50:23.498Z,14.20
2023-03-27T19:53:10.608Z,15.03
2023-03-27T19:55:37.689Z,12.23
2023-03-27T19:58:04.640Z,14.10
2023-03-27T20:00:35.258Z,13.07
2023-03-27T20:03:02.201Z,13.53
2023-03-27T20:05:29.766Z,14.17
2023-03-27T20:07:56.574Z,15.23
2023-03-27T20:10:23.402Z,11.17
2023-03-27T20:12:50.231Z,14.70
2023-03-27T20:15:17.189Z,11.47
2023-03-27T20:17:44.280Z,12.93
2023-03-27T20:20:11.821Z,11.70
2023-03-27T20:22:50.126Z,11.80
2023-03-27T20:25:21.946Z,12.70
2023-03-27T20:27:49.042Z,14.87
2023-03-27T20:30:16.075Z,14.97
2023-03-27T20:32:42.962Z,14.67
2023-03-27T20:35:20.652Z,15.53
2023-03-27T20:37:56.591Z,17.13
2023-03-27T20:40:25.238Z,13.27
2023-03-27T20:43:04.070Z,14.90
2023-03-27T20:45:31.324Z,17.43
2023-03-27T20:48:03.380Z,14.23
2023-03-27T20:50:31.840Z,16.67
2023-03-27T20:52:58.708Z,17.23
2023-03-27T20:55:33.621Z,20.03
2023-03-27T20:58:06.748Z,16.97
2023-03-27T21:00:33.926Z,14.10
2023-03-27T21:03:01.171Z,14.97
2023-03-27T21:05:30.494Z,14.60
2023-03-27T21:07:57.489Z,15.47
2023-03-27T21:10:25.363Z,12.73
2023-03-27T21:12:54.364Z,17.07
2023-03-27T21:15:21.120Z,11.77
2023-03-27T21:17:48.072Z,54.17
2023-03-27T21:20:15.278Z,137.60
2023-03-27T21:22:42.221Z,74.97
2023-03-27T21:25:09.103Z,105.77
2023-03-27T21:27:36.252Z,24.23
2023-03-27T21:30:03.402Z,20.77
2023-03-27T21:32:30.411Z,16.70
2023-03-27T21:34:57.382Z,15.00
2023-03-27T21:37:24.245Z,20.43
2023-03-27T21:39:51.376Z,20.83
2023-03-27T21:42:21.832Z,16.30
2023-03-27T21:44:52.999Z,19.23
2023-03-27T21:47:22.037Z,27.30
2023-03-27T21:49:48.891Z,22.83
2023-03-27T21:52:15.952Z,19.87
2023-03-27T21:54:53.018Z,21.10
2023-03-27T21:57:27.205Z,23.13
2023-03-27T21:59:54.153Z,18.60
2023-03-27T22:02:21.747Z,18.27
2023-03-27T22:04:48.718Z,17.50
2023-03-27T22:07:15.729Z,14.57
2023-03-27T22:09:44.246Z,14.00
2023-03-27T22:12:11.319Z,14.00
2023-03-27T22:14:38.227Z,16.27
2023-03-27T22:17:05.218Z,13.37
2023-03-27T22:19:32.121Z,15.30
2023-03-27T22:21:59.343Z,13.70
2023-03-27T22:24:26.888Z,14.60
2023-03-27T22:26:53.718Z,13.47
2023-03-27T22:29:20.608Z,17.00
2023-03-27T22:31:47.528Z,18.87
2023-03-27T22:34:14.439Z,14.80
2023-03-27T22:36:41.325Z,20.83
2023-03-27T22:39:08.296Z,19.27
2023-03-27T22:41:36.022Z,18.77
2023-03-27T22:44:03.341Z,16.53
2023-03-27T22:46:31.244Z,20.43
2023-03-27T22:48:59.420Z,23.70
2023-03-27T22:51:28.600Z,19.43
2023-03-27T22:53:56.286Z,22.27
2023-03-27T22:56:23.820Z,23.57
2023-03-27T22:58:51.314Z,28.27
2023-03-27T23:01:18.356Z,14.83
2023-03-27T23:03:45.357Z,16.13
2023-03-27T23:06:19.345Z,18.83
2023-03-27T23:08:47.949Z,15.10
2023-03-27T23:11:15.553Z,15.20
2023-03-27T23:13:42.597Z,13.43
2023-03-27T23:16:10.286Z,12.07
2023-03-27T23:18:37.715Z,13.73
2023-03-27T23:21:09.093Z,16.10
2023-03-27T23:23:37.089Z,18.70
2023-03-27T23:26:04.693Z,19.60
2023-03-27T23:28:33.089Z,21.13
2023-03-27T23:31:01.538Z,18.67
2023-03-27T23:33:29.630Z,17.77
2023-03-27T23:36:04.503Z,19.53
2023-03-27T23:38:31.504Z,18.43
2023-03-27T23:40:59.357Z,19.23
2023-03-27T23:43:27.007Z,16.73
2023-03-27T23:45:56.075Z,16.67
2023-03-27T23:48:23.621Z,19.23
2023-03-27T23:50:51.984Z,15.77
2023-03-27T23:53:19.503Z,16.60
2023-03-27T23:55:46.540Z,17.23
2023-03-27T23:58:13.442Z,19.37
